createdAt,value
2023-02-05T00:00:14.908Z,0.70
2023-02-05T00:03:16.617Z,0.60
2023-02-05T00:06:19.667Z,0.47
2023-02-05T00:09:21.333Z,0.68
2023-02-05T00:12:23.034Z,1.40
2023-02-05T00:15:25.802Z,1.35
2023-02-05T00:18:27.568Z,1.27
2023-02-05T00:21:30.612Z,1.23
2023-02-05T00:24:32.360Z,1.25
2023-02-05T00:27:34.098Z,1.83
2023-02-05T00:30:35.879Z,1.58
2023-02-05T00:33:38.307Z,1.85
2023-02-05T00:36:42.099Z,1.77
2023-02-05T00:39:43.772Z,1.83
2023-02-05T00:42:45.536Z,1.45
2023-02-05T00:45:47.737Z,1.60
2023-02-05T00:48:49.472Z,1.63
2023-02-05T00:51:52.548Z,1.90
2023-02-05T00:54:54.294Z,1.98
2023-02-05T00:57:56.483Z,1.70
2023-02-05T01:00:58.305Z,1.52
2023-02-05T01:04:00.582Z,1.50
2023-02-05T01:07:03.601Z,0.93
2023-02-05T01:10:06.333Z,1.02
2023-02-05T01:13:08.034Z,0.55
2023-02-05T01:16:10.510Z,0.30
2023-02-05T01:19:12.982Z,0.40
2023-02-05T01:22:15.994Z,0.40
2023-02-05T01:25:17.769Z,0.20
2023-02-05T01:28:20.347Z,0.30
2023-02-05T01:31:22.444Z,0.55
2023-02-05T01:34:24.510Z,0.77
2023-02-05T01:37:27.537Z,0.40
2023-02-05T01:40:29.272Z,0.40
2023-02-05T01:43:31.012Z,0.43
2023-02-05T01:46:35.213Z,0.22
2023-02-05T01:49:41.261Z,0.47
2023-02-05T01:52:44.858Z,0.20
2023-02-05T01:55:55.782Z,0.30
2023-02-05T01:59:00.539Z,0.30
2023-02-05T02:05:13.093Z,0.47
2023-02-05T02:11:22.438Z,0.22
2023-02-05T02:14:24.594Z,0.40
2023-02-05T02:17:27.787Z,0.40
2023-02-05T02:20:35.791Z,0.20
2023-02-05T02:23:52.513Z,0.17
2023-02-05T02:27:05.296Z,0.22
2023-02-05T02:30:15.930Z,0.40
2023-02-05T02:33:20.955Z,0.20
2023-02-05T02:39:36.706Z,0.65
2023-02-05T02:42:42.796Z,0.30
2023-02-05T02:45:51.631Z,0.40
2023-02-05T02:48:57.289Z,0.55
2023-02-05T02:52:03.994Z,0.50
2023-02-05T02:55:10.433Z,0.50
2023-02-05T02:58:20.111Z,0.40
2023-02-05T03:01:26.048Z,0.40
2023-02-05T03:04:32.044Z,0.63
2023-02-05T03:07:38.329Z,0.38
2023-02-05T03:10:44.728Z,0.30
2023-02-05T03:13:49.652Z,0.57
2023-02-05T03:20:05.901Z,0.32
2023-02-05T03:23:07.587Z,0.47
2023-02-05T03:26:23.094Z,0.50
2023-02-05T03:29:28.727Z,0.55
2023-02-05T03:32:47.579Z,0.60
2023-02-05T03:36:03.932Z,0.90
2023-02-05T03:39:21.248Z,1.48
2023-02-05T03:42:34.054Z,0.50
2023-02-05T03:45:46.081Z,0.90
2023-02-05T03:49:03.363Z,0.40
2023-02-05T03:52:12.070Z,0.50
2023-02-05T03:55:18.602Z,0.50
2023-02-05T03:58:27.189Z,0.50
2023-02-05T04:01:30.337Z,0.63
2023-02-05T04:04:33.408Z,0.77
2023-02-05T04:07:35.980Z,0.73
2023-02-05T04:10:38.197Z,0.70
2023-02-05T04:13:40.664Z,0.70
2023-02-05T04:16:45.415Z,0.45
2023-02-05T04:19:49.340Z,0.35
2023-02-05T04:22:53.195Z,0.35
2023-02-05T04:25:56.098Z,0.55
2023-02-05T04:29:06.185Z,1.02
2023-02-05T04:32:14.769Z,0.52
2023-02-05T04:35:17.802Z,0.60
2023-02-05T04:38:21.008Z,0.88
2023-02-05T04:41:22.800Z,0.40
2023-02-05T04:44:24.508Z,0.90
2023-02-05T04:47:26.191Z,0.70
2023-02-05T04:50:29.209Z,0.60
2023-02-05T04:53:31.125Z,0.82
2023-02-05T04:56:33.220Z,1.00
2023-02-05T04:59:34.925Z,0.70
2023-02-05T05:02:36.610Z,0.90
2023-02-05T05:05:39.764Z,0.60
2023-02-05T05:08:41.797Z,0.80
2023-02-05T05:11:43.496Z,0.63
2023-02-05T05:14:45.190Z,0.85
2023-02-05T05:17:46.835Z,0.38
2023-02-05T05:20:50.007Z,0.50
2023-02-05T05:23:51.799Z,1.08
2023-02-05T05:26:53.498Z,0.75
2023-02-05T05:29:55.170Z,0.80
2023-02-05T05:32:56.787Z,1.23
2023-02-05T05:35:59.891Z,0.73
2023-02-05T05:39:21.696Z,1.05
2023-02-05T05:42:42.126Z,1.00
2023-02-05T05:45:43.815Z,1.00
2023-02-05T05:48:45.578Z,0.90
2023-02-05T05:51:48.625Z,1.42
2023-02-05T05:54:50.319Z,1.00
2023-02-05T05:57:51.928Z,1.00
2023-02-05T06:00:56.434Z,0.70
2023-02-05T06:03:58.086Z,0.77
2023-02-05T06:07:02.242Z,0.70
2023-02-05T06:10:04.410Z,0.30
2023-02-05T06:13:06.154Z,0.90
2023-02-05T06:16:07.885Z,0.85
2023-02-05T06:19:09.659Z,0.65
2023-02-05T06:22:12.732Z,0.77
2023-02-05T06:25:15.623Z,1.00
2023-02-05T06:28:17.538Z,1.10
2023-02-05T06:31:19.430Z,1.17
2023-02-05T06:34:21.242Z,0.88
2023-02-05T06:37:34.145Z,0.82
2023-02-05T06:40:47.537Z,1.33
2023-02-05T06:43:49.155Z,0.80
2023-02-05T06:46:50.914Z,0.70
2023-02-05T06:49:52.595Z,0.90
2023-02-05T06:52:55.653Z,1.10
2023-02-05T06:55:58.058Z,0.77
2023-02-05T06:58:59.725Z,1.00
2023-02-05T07:02:01.405Z,0.93
2023-02-05T07:05:03.352Z,1.00
2023-02-05T07:08:06.729Z,0.75
2023-02-05T07:11:08.410Z,0.80
2023-02-05T07:14:10.237Z,1.08
2023-02-05T07:17:12.215Z,1.05
2023-02-05T07:20:14.039Z,0.90
2023-02-05T07:23:17.050Z,1.55
2023-02-05T07:26:18.831Z,1.50
2023-02-05T07:29:20.632Z,1.25
2023-02-05T07:32:22.372Z,1.67
2023-02-05T07:35:24.016Z,0.98
2023-02-05T07:38:27.053Z,1.35
2023-02-05T07:41:28.894Z,1.42
2023-02-05T07:44:30.576Z,1.30
2023-02-05T07:47:32.363Z,0.95
2023-02-05T07:50:34.151Z,2.00
2023-02-05T07:53:37.282Z,2.15
2023-02-05T07:56:38.893Z,1.55
2023-02-05T07:59:40.576Z,2.05
2023-02-05T08:02:42.210Z,1.38
2023-02-05T08:05:43.973Z,2.17
2023-02-05T08:08:46.956Z,2.40
2023-02-05T08:11:48.854Z,2.42
2023-02-05T08:14:52.613Z,1.85
2023-02-05T08:17:54.283Z,1.63
2023-02-05T08:20:56.018Z,2.08
2023-02-05T08:24:00.988Z,1.42
2023-02-05T08:27:02.741Z,2.05
2023-02-05T08:30:05.220Z,1.75
2023-02-05T08:33:06.918Z,1.67
2023-02-05T08:36:09.983Z,2.13
2023-02-05T08:39:13.040Z,2.55
2023-02-05T08:42:14.648Z,1.63
2023-02-05T08:45:16.526Z,3.17
2023-02-05T08:48:18.332Z,2.65
2023-02-05T08:51:22.961Z,2.05
2023-02-05T08:54:27.008Z,2.42
2023-02-05T08:57:30.011Z,2.35
2023-02-05T09:00:33.257Z,2.33
2023-02-05T09:03:35.737Z,2.95
2023-02-05T09:06:37.483Z,2.97
2023-02-05T09:09:40.902Z,1.17
2023-02-05T09:12:42.631Z,2.47
2023-02-05T09:15:48.285Z,2.17
2023-02-05T09:18:50.690Z,2.47
2023-02-05T09:21:54.126Z,1.65
2023-02-05T09:24:57.413Z,2.50
2023-02-05T09:27:59.243Z,3.55
2023-02-05T09:31:06.496Z,4.22
2023-02-05T09:34:08.289Z,3.00
2023-02-05T09:37:10.111Z,2.10
2023-02-05T09:40:21.390Z,2.33
2023-02-05T09:43:36.873Z,2.10
2023-02-05T09:46:47.321Z,2.50
2023-02-05T09:49:53.435Z,2.63
2023-02-05T09:53:00.051Z,3.05
2023-02-05T09:56:06.978Z,2.72
2023-02-05T09:59:14.671Z,2.75
2023-02-05T10:02:26.434Z,2.60
2023-02-05T10:05:36.700Z,2.70
2023-02-05T10:08:44.919Z,2.25
2023-02-05T10:11:58.705Z,3.20
2023-02-05T10:15:16.826Z,2.70
2023-02-05T10:18:26.559Z,2.63
2023-02-05T10:21:46.443Z,3.63
2023-02-05T10:25:05.321Z,2.90
2023-02-05T10:28:25.186Z,3.47
2023-02-05T10:31:39.289Z,2.80
2023-02-05T10:34:52.669Z,2.67
2023-02-05T10:37:57.673Z,3.05
2023-02-05T10:41:07.341Z,3.67
2023-02-05T10:44:18.980Z,2.80
2023-02-05T10:47:41.007Z,2.33
2023-02-05T10:50:53.170Z,2.95
2023-02-05T10:53:54.824Z,2.25
2023-02-05T10:56:58.249Z,3.90
2023-02-05T11:00:08.594Z,3.83
2023-02-05T11:03:17.007Z,4.32
2023-02-05T11:06:20.855Z,4.82
2023-02-05T11:09:31.598Z,4.68
2023-02-05T11:12:33.797Z,7.28
2023-02-05T11:15:36.955Z,2.85
2023-02-05T11:18:40.806Z,4.47
2023-02-05T11:21:48.709Z,3.38
2023-02-05T11:24:50.312Z,2.55
2023-02-05T11:27:54.038Z,4.10
2023-02-05T11:30:58.806Z,4.90
2023-02-05T11:34:11.598Z,4.25
2023-02-05T11:37:17.152Z,3.42
2023-02-05T11:40:21.601Z,4.55
2023-02-05T11:43:28.438Z,3.47
2023-02-05T11:46:44.631Z,3.90
2023-02-05T11:49:51.230Z,3.13
2023-02-05T11:52:53.841Z,3.30
2023-02-05T11:55:57.985Z,3.42
2023-02-05T11:59:00.941Z,3.00
2023-02-05T12:02:30.789Z,3.17
2023-02-05T12:05:38.792Z,3.92
2023-02-05T12:08:47.511Z,3.22
2023-02-05T12:12:01.157Z,5.55
2023-02-05T12:15:15.120Z,4.55
2023-02-05T12:18:30.306Z,3.72
2023-02-05T12:21:41.308Z,4.50
2023-02-05T12:24:52.741Z,4.35
2023-02-05T12:28:12.491Z,4.10
2023-02-05T12:31:24.658Z,4.00
2023-02-05T12:34:39.984Z,3.38
2023-02-05T12:37:49.925Z,3.60
2023-02-05T12:41:03.483Z,4.00
2023-02-05T12:44:20.033Z,3.78
2023-02-05T12:47:34.040Z,3.35
2023-02-05T12:50:53.317Z,3.78
2023-02-05T12:54:20.581Z,3.65
2023-02-05T12:57:26.504Z,5.00
2023-02-05T13:00:34.468Z,4.88
2023-02-05T13:03:42.272Z,4.00
2023-02-05T13:06:52.296Z,3.88
2023-02-05T13:10:01.231Z,3.65
2023-02-05T13:13:06.958Z,4.50
2023-02-05T13:16:14.273Z,3.53
2023-02-05T13:19:25.981Z,3.95
2023-02-05T13:22:50.349Z,3.72
2023-02-05T13:26:10.711Z,2.50
2023-02-05T13:29:16.165Z,2.58
2023-02-05T13:32:23.609Z,1.40
2023-02-05T13:35:31.318Z,1.40
2023-02-05T13:38:49.415Z,0.98
2023-02-05T13:42:08.662Z,1.95
2023-02-05T13:45:37.727Z,1.70
2023-02-05T13:49:15.297Z,1.90
2023-02-05T13:52:32.106Z,1.58
2023-02-05T13:55:49.425Z,1.17
2023-02-05T14:01:57.782Z,0.70
2023-02-05T14:05:02.013Z,0.90
2023-02-05T14:08:05.797Z,0.90
2023-02-05T14:11:10.159Z,0.75
2023-02-05T14:14:31.394Z,0.77
2023-02-05T14:17:54.367Z,0.68
2023-02-05T14:20:56.112Z,0.60
2023-02-05T14:23:59.374Z,0.70
2023-02-05T14:27:02.766Z,0.73
2023-02-05T14:30:44.340Z,0.60
2023-02-05T14:33:46.242Z,0.95
2023-02-05T14:36:48.251Z,1.10
2023-02-05T14:39:51.758Z,0.63
2023-02-05T14:43:09.697Z,0.57
2023-02-05T14:46:24.931Z,0.40
2023-02-05T14:49:30.046Z,0.38
2023-02-05T14:55:40.159Z,0.80
2023-02-05T14:58:45.169Z,1.02
2023-02-05T15:01:50.414Z,1.40
2023-02-05T15:04:54.497Z,0.60
2023-02-05T15:08:11.219Z,0.50
2023-02-05T15:11:20.006Z,0.30
2023-02-05T15:14:41.720Z,0.38
2023-02-05T15:17:51.291Z,1.02
2023-02-05T15:20:56.256Z,0.73
2023-02-05T15:24:01.898Z,0.60
2023-02-05T15:27:13.519Z,0.60
2023-02-05T15:30:22.055Z,1.02
2023-02-05T15:33:40.540Z,1.33
2023-02-05T15:36:49.648Z,0.90
2023-02-05T15:39:54.280Z,0.85
2023-02-05T15:42:59.014Z,1.25
2023-02-05T15:46:05.758Z,0.90
2023-02-05T15:49:08.221Z,1.27
2023-02-05T15:52:17.913Z,1.80
2023-02-05T15:55:22.391Z,1.00
2023-02-05T15:58:26.709Z,1.80
2023-02-05T16:01:32.363Z,1.90
2023-02-05T16:04:35.965Z,2.13
2023-02-05T16:07:42.268Z,2.03
2023-02-05T16:10:52.255Z,1.33
2023-02-05T16:14:10.721Z,1.67
2023-02-05T16:17:19.757Z,1.40
2023-02-05T16:20:28.779Z,1.67
2023-02-05T16:23:36.001Z,3.03
2023-02-05T16:26:42.877Z,3.63
2023-02-05T16:29:49.224Z,2.95
2023-02-05T16:32:53.975Z,1.80
2023-02-05T16:35:58.933Z,2.33
2023-02-05T16:39:03.626Z,1.80
2023-02-05T16:42:07.511Z,1.70
2023-02-05T16:45:20.221Z,1.73
2023-02-05T16:48:25.517Z,1.88
2023-02-05T16:51:33.898Z,2.20
2023-02-05T16:54:38.693Z,1.30
2023-02-05T16:57:40.555Z,1.80
2023-02-05T17:00:42.368Z,1.48
2023-02-05T17:03:49.323Z,1.95
2023-02-05T17:06:51.065Z,1.95
2023-02-05T17:09:52.980Z,1.20
2023-02-05T17:12:56.680Z,1.55
2023-02-05T17:16:19.160Z,1.33
2023-02-05T17:19:27.828Z,1.10
2023-02-05T17:22:29.654Z,1.40
2023-02-05T17:25:36.507Z,1.25
2023-02-05T17:28:43.799Z,1.60
2023-02-05T17:31:45.828Z,1.58
2023-02-05T17:34:48.865Z,1.15
2023-02-05T17:37:51.328Z,1.67
2023-02-05T17:41:13.113Z,2.20
2023-02-05T17:44:16.301Z,1.60
2023-02-05T17:47:18.598Z,1.90
2023-02-05T17:50:22.009Z,1.90
2023-02-05T17:53:23.742Z,1.42
2023-02-05T17:56:25.924Z,1.88
2023-02-05T17:59:28.000Z,1.48
2023-02-05T18:02:29.945Z,1.05
2023-02-05T18:05:33.119Z,0.85
2023-02-05T18:08:37.041Z,1.33
2023-02-05T18:11:39.062Z,1.35
2023-02-05T18:14:40.818Z,1.27
2023-02-05T18:17:42.543Z,1.63
2023-02-05T18:20:46.301Z,1.35
2023-02-05T18:23:50.372Z,1.70
2023-02-05T18:26:53.006Z,1.00
2023-02-05T18:29:54.828Z,1.30
2023-02-05T18:32:56.507Z,0.95
2023-02-05T18:36:01.900Z,1.38
2023-02-05T18:39:03.953Z,1.45
2023-02-05T18:42:05.894Z,1.42
2023-02-05T18:45:08.858Z,1.90
2023-02-05T18:48:10.529Z,1.23
2023-02-05T18:51:16.546Z,0.77
2023-02-05T18:54:18.222Z,1.65
2023-02-05T18:57:20.017Z,1.80
2023-02-05T19:00:21.753Z,1.38
2023-02-05T19:03:24.063Z,1.08
2023-02-05T19:06:27.273Z,1.55
2023-02-05T19:09:29.691Z,1.73
2023-02-05T19:12:31.662Z,1.45
2023-02-05T19:15:34.700Z,1.45
2023-02-05T19:18:36.498Z,1.00
2023-02-05T19:21:40.606Z,0.75
2023-02-05T19:24:43.296Z,1.35
2023-02-05T19:27:45.310Z,0.28
2023-02-05T19:30:47.149Z,0.63
2023-02-05T19:33:49.077Z,1.52
2023-02-05T19:36:52.240Z,1.30
2023-02-05T19:39:54.009Z,1.30
2023-02-05T19:42:56.858Z,1.58
2023-02-05T19:46:02.350Z,1.60
2023-02-05T19:49:06.247Z,2.10
2023-02-05T19:52:09.619Z,1.88
2023-02-05T19:55:11.283Z,1.50
2023-02-05T19:58:13.108Z,0.98
2023-02-05T20:01:16.523Z,1.05
2023-02-05T20:04:22.114Z,1.63
2023-02-05T20:07:25.140Z,1.58
2023-02-05T20:10:27.118Z,1.23
2023-02-05T20:13:30.221Z,1.20
2023-02-05T20:16:31.954Z,1.60
2023-02-05T20:19:34.046Z,1.60
2023-02-05T20:22:37.207Z,1.50
2023-02-05T20:25:39.099Z,1.50
2023-02-05T20:29:00.843Z,1.38
2023-02-05T20:32:02.834Z,1.33
2023-02-05T20:35:05.356Z,0.93
2023-02-05T20:38:08.591Z,1.40
2023-02-05T20:41:11.405Z,1.33
2023-02-05T20:44:13.345Z,1.17
2023-02-05T20:47:15.294Z,1.02
2023-02-05T20:50:17.098Z,1.15
2023-02-05T20:53:20.272Z,2.15
2023-02-05T20:56:22.019Z,2.08
2023-02-05T20:59:24.690Z,2.00
2023-02-05T21:02:27.894Z,1.75
2023-02-05T21:05:31.799Z,2.00
2023-02-05T21:08:37.368Z,1.75
2023-02-05T21:11:39.497Z,1.52
2023-02-05T21:14:41.251Z,1.38
2023-02-05T21:17:43.101Z,1.60
2023-02-05T21:20:44.986Z,1.73
2023-02-05T21:23:48.483Z,1.98
2023-02-05T21:26:50.298Z,1.50
2023-02-05T21:29:51.991Z,1.55
2023-02-05T21:32:54.149Z,1.85
2023-02-05T21:35:56.064Z,1.05
2023-02-05T21:38:59.991Z,1.50
2023-02-05T21:42:01.739Z,1.40
2023-02-05T21:45:03.940Z,1.65
2023-02-05T21:48:05.932Z,1.52
2023-02-05T21:51:09.336Z,2.08
2023-02-05T21:54:12.431Z,1.67
2023-02-05T21:57:14.136Z,2.05
2023-02-05T22:00:16.899Z,2.53
2023-02-05T22:03:18.585Z,1.77
2023-02-05T22:06:22.065Z,1.10
2023-02-05T22:09:25.178Z,0.85
2023-02-05T22:12:26.800Z,1.50
2023-02-05T22:15:28.582Z,1.80
2023-02-05T22:18:30.497Z,1.27
2023-02-05T22:21:34.117Z,1.25
2023-02-05T22:24:37.208Z,1.52
2023-02-05T22:27:38.950Z,1.60
2023-02-05T22:30:40.741Z,1.23
2023-02-05T22:33:44.230Z,1.67
2023-02-05T22:36:46.305Z,1.83
2023-02-05T22:39:49.528Z,1.65
2023-02-05T22:42:51.221Z,1.73
2023-02-05T22:45:52.935Z,1.48
2023-02-05T22:48:55.818Z,1.23
2023-02-05T22:51:57.548Z,1.23
2023-02-05T22:55:00.660Z,1.40
2023-02-05T22:58:02.712Z,1.52
2023-02-05T23:01:07.800Z,2.00
2023-02-05T23:04:10.264Z,1.50
2023-02-05T23:07:12.040Z,1.48
2023-02-05T23:10:17.094Z,1.40
2023-02-05T23:13:18.760Z,1.52
2023-02-05T23:16:22.329Z,1.60
2023-02-05T23:19:24.004Z,1.63
2023-02-05T23:22:25.629Z,1.50
2023-02-05T23:25:28.615Z,1.65
2023-02-05T23:28:30.319Z,1.70
2023-02-05T23:31:32.089Z,1.13
2023-02-05T23:34:34.002Z,1.30
2023-02-05T23:37:35.780Z,1.42
2023-02-05T23:40:38.890Z,1.00
2023-02-05T23:43:40.552Z,1.38
2023-02-05T23:46:43.684Z,1.38
2023-02-05T23:49:45.334Z,1.20
2023-02-05T23:52:47.046Z,1.00
2023-02-05T23:55:51.893Z,0.90
2023-02-05T23:58:53.607Z,0.90
